Time;durP1;ratioP1;P1;durP2;ratioP2;P2;SDS_P1;SDS_P2;PMS_P1;PMS_P2;Temp;Humidity;BMP_temperature;BMP_pressure;BME280_temperature;BME280_humidity;BME280_pressure;Samples;Min_cycle;Max_cycle;Signal;HPM_P1;HPM_P2
2023/06/25 00:00:53;;;;;;;3.50;1.52;;;;;;;31.68;19.56;100937.72;4990545;28;20073;-69
2023/06/25 00:03:21;;;;;;;2.95;1.73;;;;;;;31.69;20.03;100943.94;4992466;28;20063;-70
2023/06/25 00:05:51;;;;;;;3.67;1.42;;;;;;;31.69;20.91;100946.59;4990382;28;20646;-69
2023/06/25 00:08:20;;;;;;;1.95;1.40;;;;;;;31.62;20.73;100947.91;4988705;28;20058;-69
2023/06/25 00:10:49;;;;;;;2.75;1.50;;;;;;;31.60;21.00;100941.78;4989842;28;20058;-68
2023/06/25 00:13:17;;;;;;;1.80;1.17;;;;;;;31.55;21.07;100927.81;4987198;28;20047;-68
2023/06/25 00:15:46;;;;;;;1.70;1.15;;;;;;;31.54;21.10;100932.25;4987265;28;20042;-69
2023/06/25 00:18:14;;;;;;;1.65;1.30;;;;;;;31.57;21.84;100926.75;4989521;28;20058;-69
2023/06/25 00:20:46;;;;;;;2.78;1.60;;;;;;;31.56;21.07;100929.50;4987764;28;20072;-70
2023/06/25 00:23:16;;;;;;;3.13;1.30;;;;;;;31.49;22.81;100924.50;4984389;28;20058;-68
2023/06/25 00:25:45;;;;;;;2.80;1.60;;;;;;;31.45;22.40;100922.97;4989192;28;20054;-71
2023/06/25 00:28:13;;;;;;;1.77;1.50;;;;;;;31.36;22.67;100915.41;4985687;28;20057;-71
2023/06/25 00:30:42;;;;;;;1.95;1.25;;;;;;;31.23;22.73;100915.22;4995820;28;20045;-70
2023/06/25 00:33:11;;;;;;;2.83;1.60;;;;;;;31.10;23.00;100912.34;4989152;28;20137;-70
2023/06/25 00:36:07;;;;;;;2.38;1.60;;;;;;;30.91;23.43;100908.94;4988830;28;20514;-71
2023/06/25 00:38:39;;;;;;;1.77;1.30;;;;;;;30.78;22.69;100903.34;4975516;28;20115;-68
2023/06/25 00:41:08;;;;;;;;;;;;;;;30.67;22.40;100901.25;4987345;28;20129;-70
2023/06/25 00:43:40;;;;;;;2.75;1.38;;;;;;;30.68;23.00;100902.97;4989162;28;19928;-69
2023/06/25 00:46:12;;;;;;;2.00;1.40;;;;;;;30.66;22.53;100898.66;4987792;28;20058;-69
2023/06/25 00:48:45;;;;;;;1.77;1.30;;;;;;;30.58;23.24;100891.03;4983322;28;20481;-70
2023/06/25 00:51:15;;;;;;;3.35;1.60;;;;;;;30.57;23.38;100891.97;4986361;28;20103;-68
2023/06/25 00:53:46;;;;;;;4.60;1.55;;;;;;;30.56;22.36;100895.59;4988807;28;20047;-68
2023/06/25 00:56:15;;;;;;;2.45;1.60;;;;;;;30.52;23.17;100891.34;4991517;28;20042;-68
2023/06/25 00:58:44;;;;;;;2.35;1.60;;;;;;;30.36;23.82;100885.09;4985885;28;20060;-68
2023/06/25 01:01:19;;;;;;;3.90;1.77;;;;;;;30.25;24.71;100894.44;4988402;28;20053;-68
2023/06/25 01:03:54;;;;;;;2.55;1.60;;;;;;;30.31;24.62;100887.13;4989977;28;20641;-69
2023/06/25 01:06:33;;;;;;;2.40;1.40;;;;;;;30.35;24.72;100886.00;4990299;28;20155;-70
2023/06/25 01:09:06;;;;;;;2.85;1.65;;;;;;;30.33;25.01;100895.91;4990534;28;20046;-70
2023/06/25 01:11:35;;;;;;;2.22;1.27;;;;;;;30.32;23.97;100883.50;4990341;28;20046;-69
2023/06/25 01:14:03;;;;;;;2.83;1.40;;;;;;;30.33;24.03;100898.56;4989409;28;20132;-70
2023/06/25 01:16:32;;;;;;;2.05;1.35;;;;;;;30.26;23.15;100887.31;4988399;28;20077;-72
2023/06/25 01:19:02;;;;;;;2.80;1.50;;;;;;;30.04;24.35;100874.19;4987609;28;20046;-68
2023/06/25 01:21:32;;;;;;;2.22;1.50;;;;;;;30.04;25.65;100895.53;4984065;28;20134;-69
2023/06/25 01:24:02;;;;;;;2.10;1.20;;;;;;;30.02;25.82;100894.75;4989033;28;20499;-71
2023/06/25 01:26:31;;;;;;;3.15;1.48;;;;;;;29.87;25.97;100893.72;4985473;28;20621;-69
2023/06/25 01:29:00;;;;;;;4.10;1.58;;;;;;;29.78;26.36;100891.47;4986954;28;20042;-69
2023/06/25 01:31:30;;;;;;;1.95;1.27;;;;;;;29.83;27.86;100900.13;4981257;28;20059;-69
2023/06/25 01:33:59;;;;;;;2.25;1.30;;;;;;;29.75;27.39;100900.47;4989749;28;20141;-70
2023/06/25 01:36:28;;;;;;;1.80;1.17;;;;;;;29.61;26.36;100897.59;4988457;28;20073;-70
2023/06/25 01:38:59;;;;;;;4.68;1.42;;;;;;;29.47;26.26;100905.38;4986918;28;20061;-70
2023/06/25 01:41:29;;;;;;;2.00;1.40;;;;;;;29.33;27.14;100898.91;4969370;28;20061;-69
2023/06/25 01:43:58;;;;;;;2.88;1.50;;;;;;;29.21;27.38;100900.34;4979958;28;20058;-69
2023/06/25 01:46:26;;;;;;;3.30;1.42;;;;;;;29.09;27.93;100900.00;4983113;28;20411;-69
2023/06/25 01:48:55;;;;;;;3.05;1.55;;;;;;;29.08;28.00;100898.31;4982229;28;20081;-70
2023/06/25 01:51:24;;;;;;;3.75;1.25;;;;;;;29.07;28.36;100899.19;4980386;28;20054;-69
2023/06/25 01:53:52;;;;;;;2.13;1.20;;;;;;;29.02;28.49;100902.06;4981848;28;20105;-69
2023/06/25 01:56:21;;;;;;;5.15;1.90;;;;;;;29.00;29.12;100901.25;4985108;28;20409;-69
2023/06/25 01:58:53;;;;;;;2.63;1.60;;;;;;;29.03;29.11;100907.31;4984503;28;20056;-69
2023/06/25 02:01:21;;;;;;;1.48;1.20;;;;;;;29.04;29.23;100908.19;4976793;28;20046;-70
2023/06/25 02:03:50;;;;;;;1.75;1.05;;;;;;;29.04;28.50;100903.72;4984086;28;20227;-70
2023/06/25 02:06:18;;;;;;;4.38;1.00;;;;;;;28.97;28.33;100904.94;4981920;28;20066;-71
2023/06/25 02:08:47;;;;;;;3.38;1.17;;;;;;;28.74;28.43;100899.78;4978019;28;20053;-69
2023/06/25 02:11:16;;;;;;;1.60;1.00;;;;;;;28.65;28.18;100906.34;4985997;28;20070;-70
2023/06/25 02:13:45;;;;;;;1.60;1.10;;;;;;;28.54;27.86;100906.84;4985524;28;20051;-70
2023/06/25 02:16:15;;;;;;;3.53;1.25;;;;;;;28.39;28.82;100915.44;4984003;28;20057;-70
2023/06/25 02:18:44;;;;;;;2.08;1.08;;;;;;;28.24;28.49;100910.75;4981389;28;20058;-70
2023/06/25 02:21:13;;;;;;;1.55;1.00;;;;;;;28.08;28.15;100911.38;4983455;28;20053;-68
2023/06/25 02:23:41;;;;;;;1.40;0.82;;;;;;;27.95;28.30;100918.16;4973912;28;20469;-69
2023/06/25 02:26:10;;;;;;;2.28;0.70;;;;;;;27.81;28.24;100913.34;4981362;28;20793;-69
2023/06/25 02:28:39;;;;;;;2.05;0.90;;;;;;;27.77;28.52;100927.69;4979952;28;20129;-69
2023/06/25 02:31:08;;;;;;;1.52;1.02;;;;;;;27.74;28.87;100920.72;4984707;28;20062;-68
2023/06/25 02:33:38;;;;;;;1.35;0.98;;;;;;;27.72;28.82;100925.22;4986139;28;20593;-70
2023/06/25 02:36:07;;;;;;;1.80;0.70;;;;;;;27.69;29.43;100925.31;4986360;28;20047;-69
2023/06/25 02:38:36;;;;;;;1.10;0.85;;;;;;;27.67;29.18;100918.31;4979720;28;20129;-69
2023/06/25 02:41:07;;;;;;;1.67;0.80;;;;;;;27.66;28.87;100922.78;4986719;28;20050;-71
2023/06/25 02:43:36;;;;;;;0.60;0.60;;;;;;;27.60;29.03;100920.34;4985503;28;20050;-68
2023/06/25 02:46:04;;;;;;;1.25;0.80;;;;;;;27.59;29.71;100926.59;4981485;28;20046;-68
2023/06/25 02:48:33;;;;;;;1.48;0.80;;;;;;;27.56;29.60;100924.94;4982674;28;20054;-67
2023/06/25 02:51:04;;;;;;;0.77;0.73;;;;;;;27.54;29.89;100920.63;4985234;28;20046;-70
2023/06/25 02:53:34;;;;;;;1.40;0.70;;;;;;;27.48;30.41;100915.53;4985763;28;20447;-68
2023/06/25 02:56:02;;;;;;;1.08;0.70;;;;;;;27.42;30.64;100913.97;4986617;28;20046;-68
2023/06/25 02:58:31;;;;;;;1.90;0.70;;;;;;;27.35;31.18;100916.00;4984922;28;20456;-69
2023/06/25 03:01:00;;;;;;;0.95;0.60;;;;;;;27.27;30.77;100922.53;4984183;28;20387;-68
2023/06/25 03:03:30;;;;;;;2.25;0.90;;;;;;;27.19;31.34;100924.56;4982963;28;20054;-69
2023/06/25 03:05:59;;;;;;;2.20;0.80;;;;;;;27.10;31.55;100925.78;4981715;28;20061;-68
2023/06/25 03:08:29;;;;;;;0.70;0.65;;;;;;;27.02;31.54;100927.84;4975382;28;20065;-69
2023/06/25 03:10:58;;;;;;;0.93;0.63;;;;;;;27.02;31.21;100935.81;4980903;28;20050;-69
2023/06/25 03:13:26;;;;;;;3.60;0.75;;;;;;;26.94;31.40;100926.31;4983071;28;20053;-68
2023/06/25 03:15:58;;;;;;;1.67;0.80;;;;;;;26.88;29.83;100937.16;4983404;28;20491;-67
2023/06/25 03:18:27;;;;;;;3.10;0.82;;;;;;;26.81;29.96;100929.47;4979388;28;20059;-67
2023/06/25 03:20:55;;;;;;;0.80;0.60;;;;;;;26.72;28.95;100931.53;4981002;28;20606;-69
2023/06/25 03:23:24;;;;;;;1.13;0.70;;;;;;;26.59;29.11;100929.34;4981604;28;20511;-67
2023/06/25 03:25:54;;;;;;;1.40;0.80;;;;;;;26.42;29.24;100928.09;4984956;28;20159;-67
2023/06/25 03:28:23;;;;;;;0.75;0.65;;;;;;;26.38;28.55;100931.78;4982479;28;20484;-67
2023/06/25 03:30:52;;;;;;;1.75;0.77;;;;;;;26.27;28.98;100940.09;4986762;28;20057;-69
2023/06/25 03:33:20;;;;;;;2.15;0.70;;;;;;;26.20;29.01;100943.84;4981834;28;20788;-69
2023/06/25 03:35:49;;;;;;;0.95;0.70;;;;;;;26.10;28.76;100943.28;4977981;28;20397;-68
2023/06/25 03:38:18;;;;;;;1.45;1.00;;;;;;;26.00;29.12;100947.16;4986004;28;20061;-69
2023/06/25 03:40:57;;;;;;;1.48;0.90;;;;;;;25.88;28.85;100947.53;4986148;28;20129;-68
2023/06/25 03:43:25;;;;;;;2.55;0.88;;;;;;;25.75;28.92;100941.72;4982312;28;20583;-68
2023/06/25 03:45:54;;;;;;;1.90;0.98;;;;;;;25.63;28.65;100948.25;4980482;28;20058;-68
2023/06/25 03:48:30;;;;;;;1.13;1.00;;;;;;;25.53;29.08;100946.78;4982876;28;20047;-68
2023/06/25 03:50:59;;;;;;;3.28;1.13;;;;;;;25.42;28.95;100943.59;4985955;28;20057;-68
2023/06/25 03:53:28;;;;;;;4.80;0.90;;;;;;;25.33;28.74;100950.00;4982624;28;20414;-69
2023/06/25 03:55:58;;;;;;;1.55;0.80;;;;;;;25.20;29.73;100949.50;4990585;28;20074;-70
2023/06/25 03:58:26;;;;;;;2.22;1.08;;;;;;;25.08;29.24;100955.09;4988332;28;20050;-68
2023/06/25 04:00:55;;;;;;;1.08;0.82;;;;;;;24.98;29.56;100959.78;4986882;28;20312;-68
2023/06/25 04:03:25;;;;;;;1.13;0.90;;;;;;;24.87;30.04;100954.75;4980481;28;20053;-67
2023/06/25 04:06:00;;;;;;;3.10;1.08;;;;;;;24.81;30.37;100962.88;4982060;28;20112;-69
2023/06/25 04:08:36;;;;;;;1.63;0.80;;;;;;;24.72;29.71;100960.47;4986156;28;20048;-68
2023/06/25 04:11:06;;;;;;;2.72;1.02;;;;;;;24.65;31.36;100961.56;4985078;28;20042;-68
2023/06/25 04:13:35;;;;;;;2.75;0.88;;;;;;;24.58;32.32;100974.06;4986063;28;20080;-68
2023/06/25 04:16:03;;;;;;;1.58;1.10;;;;;;;24.51;31.05;100969.84;4992529;28;20061;-68
2023/06/25 04:18:32;;;;;;;2.35;0.90;;;;;;;24.39;33.00;100964.78;4987730;28;20408;-67
2023/06/25 04:21:00;;;;;;;1.67;0.77;;;;;;;24.31;30.39;100972.94;4983596;28;20476;-68
2023/06/25 04:23:29;;;;;;;2.78;1.20;;;;;;;24.20;30.47;100991.69;4986048;28;20502;-66
2023/06/25 04:25:58;;;;;;;2.97;1.08;;;;;;;24.09;30.67;100990.19;4985512;28;20053;-68
2023/06/25 04:28:28;;;;;;;1.00;0.82;;;;;;;23.96;31.29;100981.66;4983323;28;20300;-67
2023/06/25 04:30:57;;;;;;;1.45;1.00;;;;;;;23.93;30.64;100995.81;4981017;28;20050;-67
2023/06/25 04:33:25;;;;;;;1.63;1.00;;;;;;;23.88;30.48;101010.91;4989601;28;20056;-67
2023/06/25 04:35:54;;;;;;;1.48;0.85;;;;;;;23.73;30.16;101000.63;4986314;28;20059;-68
2023/06/25 04:38:23;;;;;;;2.97;1.00;;;;;;;23.68;30.86;101013.94;4991201;28;20053;-68
2023/06/25 04:40:51;;;;;;;1.25;0.90;;;;;;;23.67;30.85;101017.50;4989148;28;20050;-67
2023/06/25 04:43:20;;;;;;;1.42;0.90;;;;;;;23.54;31.99;101022.13;4992286;28;20056;-68
2023/06/25 04:45:50;;;;;;;1.10;0.93;;;;;;;23.44;32.13;101025.00;4990071;28;20444;-69
2023/06/25 04:48:19;;;;;;;1.75;1.00;;;;;;;23.41;31.88;101026.81;4985142;28;20097;-66
2023/06/25 04:50:47;;;;;;;1.67;1.30;;;;;;;23.37;31.85;101029.53;4978271;28;20057;-67
2023/06/25 04:53:16;;;;;;;3.85;1.30;;;;;;;23.24;31.95;101007.75;4984129;28;20054;-69
2023/06/25 04:55:50;;;;;;;2.13;1.00;;;;;;;23.27;31.84;101034.09;4986610;28;20078;-68
2023/06/25 04:58:18;;;;;;;1.25;0.90;;;;;;;23.19;33.00;101025.47;4986924;28;20575;-69
2023/06/25 05:00:49;;;;;;;1.52;1.00;;;;;;;23.08;32.15;101017.75;4987746;28;20046;-67
2023/06/25 05:03:18;;;;;;;1.80;1.33;;;;;;;23.09;32.73;101034.44;4986626;28;20519;-68
2023/06/25 05:05:49;;;;;;;1.33;1.10;;;;;;;23.04;31.58;101036.28;4981011;28;20062;-68
2023/06/25 05:08:17;;;;;;;1.25;0.90;;;;;;;23.00;31.51;101040.78;4976637;28;20145;-68
2023/06/25 05:10:46;;;;;;;3.05;1.00;;;;;;;22.97;32.12;101046.91;4984440;28;20088;-67
2023/06/25 05:13:14;;;;;;;1.25;0.80;;;;;;;22.92;31.19;101040.00;4982749;28;20043;-68
2023/06/25 05:15:43;;;;;;;1.17;0.88;;;;;;;22.87;33.02;101045.34;4984063;28;20053;-69
2023/06/25 05:18:16;;;;;;;1.65;1.00;;;;;;;22.75;33.73;101049.06;4983897;28;20046;-68
2023/06/25 05:20:45;;;;;;;1.40;1.08;;;;;;;22.66;32.29;101054.47;4983394;28;20631;-68
2023/06/25 05:23:13;;;;;;;1.35;0.95;;;;;;;22.59;32.21;101044.94;4985858;28;20146;-68
2023/06/25 05:25:42;;;;;;;2.35;0.80;;;;;;;22.47;32.33;101047.72;4986928;28;20057;-67
2023/06/25 05:28:11;;;;;;;1.83;1.00;;;;;;;22.46;32.87;101053.91;4975539;28;20053;-67
2023/06/25 05:30:40;;;;;;;3.17;0.80;;;;;;;22.36;33.79;101053.19;4975524;28;20043;-68
2023/06/25 05:33:08;;;;;;;1.70;1.00;;;;;;;22.30;33.45;101063.81;4985241;28;20053;-68
2023/06/25 05:35:39;;;;;;;1.88;0.98;;;;;;;22.21;33.85;101059.53;4979529;28;20795;-68
2023/06/25 05:38:07;;;;;;;2.25;1.27;;;;;;;22.15;33.31;101060.47;4983208;28;20057;-68
2023/06/25 05:40:37;;;;;;;1.45;0.90;;;;;;;22.08;32.88;101057.91;4987336;28;20057;-68
2023/06/25 05:43:06;;;;;;;2.10;0.93;;;;;;;22.04;33.37;101050.97;4985224;28;20049;-68
2023/06/25 05:45:34;;;;;;;1.75;0.90;;;;;;;22.02;34.33;101058.03;4978893;28;20525;-67
2023/06/25 05:48:03;;;;;;;1.50;0.80;;;;;;;21.95;32.44;101051.94;4985087;28;20188;-68
2023/06/25 05:50:31;;;;;;;1.95;0.93;;;;;;;21.89;32.11;101060.78;4977203;28;20484;-67
2023/06/25 05:53:02;;;;;;;1.98;1.10;;;;;;;21.84;33.20;101059.97;4975493;28;20527;-68
2023/06/25 05:55:30;;;;;;;2.03;1.08;;;;;;;21.76;31.97;101059.19;4982661;28;20099;-68
2023/06/25 05:57:59;;;;;;;1.17;0.70;;;;;;;21.71;31.11;101063.66;4987112;28;20189;-68
2023/06/25 06:00:28;;;;;;;2.55;1.00;;;;;;;21.66;31.17;101057.56;4981710;28;20077;-67
2023/06/25 06:02:56;;;;;;;1.33;1.08;;;;;;;21.62;31.35;101061.97;4985301;28;20051;-68
2023/06/25 06:05:28;;;;;;;5.25;1.00;;;;;;;21.49;32.14;101053.38;4988203;28;20057;-68
2023/06/25 06:07:56;;;;;;;1.92;1.27;;;;;;;21.50;31.70;101068.25;4987925;28;20054;-68
2023/06/25 06:10:27;;;;;;;1.25;0.90;;;;;;;21.45;31.09;101064.81;4986180;28;20061;-68
2023/06/25 06:12:55;;;;;;;1.50;0.80;;;;;;;21.40;31.43;101064.00;4989571;28;20052;-68
2023/06/25 06:15:24;;;;;;;1.02;0.93;;;;;;;21.36;31.54;101066.63;4987440;28;20042;-68
2023/06/25 06:17:52;;;;;;;2.92;0.65;;;;;;;21.32;31.66;101076.31;4983863;28;20046;-67
2023/06/25 06:20:21;;;;;;;1.30;0.77;;;;;;;21.28;32.51;101078.13;4984901;28;20140;-67
2023/06/25 06:22:50;;;;;;;1.23;0.80;;;;;;;21.23;32.59;101079.03;4982001;28;20043;-68
2023/06/25 06:25:18;;;;;;;1.08;0.55;;;;;;;21.19;33.64;101082.56;4980929;28;20065;-68
2023/06/25 06:27:48;;;;;;;0.80;0.60;;;;;;;21.17;33.35;101084.38;4987070;28;20053;-67
2023/06/25 06:30:19;;;;;;;1.00;0.82;;;;;;;21.10;33.28;101080.91;4986046;28;20055;-68
2023/06/25 06:32:48;;;;;;;0.80;0.50;;;;;;;21.04;33.19;101091.50;4987328;28;20050;-68
2023/06/25 06:35:17;;;;;;;1.02;0.70;;;;;;;21.01;34.25;101088.91;4986427;28;20045;-68
2023/06/25 06:37:45;;;;;;;1.05;0.50;;;;;;;21.00;34.99;101084.50;4979610;28;20520;-67
2023/06/25 06:40:16;;;;;;;1.55;0.90;;;;;;;20.95;35.02;101087.16;4987194;28;20505;-67
2023/06/25 06:42:45;;;;;;;3.00;1.13;;;;;;;20.92;35.33;101084.56;4984538;28;20504;-67
2023/06/25 06:45:15;;;;;;;0.80;0.60;;;;;;;20.87;35.41;101091.63;4987024;28;20054;-67
2023/06/25 06:47:45;;;;;;;0.60;0.50;;;;;;;20.85;35.94;101096.91;4987671;28;20043;-68
2023/06/25 06:50:16;;;;;;;1.63;0.70;;;;;;;20.77;35.78;101097.84;4991190;28;20054;-68
2023/06/25 06:52:45;;;;;;;0.80;0.40;;;;;;;20.65;36.40;101083.00;4988130;28;20047;-69
2023/06/25 06:55:14;;;;;;;0.65;0.50;;;;;;;20.67;36.03;101090.00;4989217;28;20053;-68
2023/06/25 06:57:42;;;;;;;0.68;0.50;;;;;;;20.66;36.86;101096.16;4989618;28;20110;-67
2023/06/25 07:00:11;;;;;;;2.83;0.57;;;;;;;20.61;38.43;101092.66;4992679;28;20054;-68
2023/06/25 07:02:42;;;;;;;0.88;0.63;;;;;;;20.55;37.86;101092.69;4990698;28;20512;-67
2023/06/25 07:05:10;;;;;;;9.30;0.65;;;;;;;20.49;37.45;101093.59;4988506;28;20182;-67
2023/06/25 07:07:39;;;;;;;1.90;0.70;;;;;;;20.44;37.54;101089.25;4993787;28;20062;-68
2023/06/25 07:10:08;;;;;;;1.77;0.82;;;;;;;20.30;38.04;101098.09;4986730;28;20046;-69
2023/06/25 07:12:37;;;;;;;1.75;0.80;;;;;;;20.23;38.52;101101.63;4989047;28;20058;-68
2023/06/25 07:15:06;;;;;;;0.82;0.68;;;;;;;20.19;38.17;101105.16;4985965;28;20050;-67
2023/06/25 07:17:35;;;;;;;1.08;0.70;;;;;;;20.16;38.81;101114.78;4989872;28;20611;-67
2023/06/25 07:20:06;;;;;;;1.38;0.73;;;;;;;20.12;41.60;101120.94;4986585;28;20050;-67
2023/06/25 07:22:36;;;;;;;0.75;0.70;;;;;;;20.05;40.62;101122.72;4990123;28;20682;-68
2023/06/25 07:25:07;;;;;;;0.93;0.55;;;;;;;20.02;41.04;101125.34;4989030;28;20054;-67
2023/06/25 07:27:36;;;;;;;1.05;0.60;;;;;;;19.98;40.09;101131.50;4985602;28;20531;-67
2023/06/25 07:30:05;;;;;;;1.00;0.77;;;;;;;19.94;40.32;101129.75;4991971;28;20043;-68
2023/06/25 07:32:33;;;;;;;1.23;0.73;;;;;;;19.79;40.94;101128.03;4986904;28;20404;-67
2023/06/25 07:35:04;;;;;;;0.95;0.70;;;;;;;19.68;41.50;101141.19;4995373;28;20042;-68
2023/06/25 07:37:32;;;;;;;0.82;0.60;;;;;;;19.53;42.17;101135.94;4990138;28;20046;-67
2023/06/25 07:40:01;;;;;;;2.92;0.95;;;;;;;19.43;42.82;101137.72;4999206;28;20547;-68
2023/06/25 07:42:29;;;;;;;2.13;0.88;;;;;;;19.37;44.00;101137.72;4989283;28;20133;-68
2023/06/25 07:44:58;;;;;;;1.73;0.82;;;;;;;19.37;43.60;101146.44;4987133;28;20043;-67
2023/06/25 07:47:27;;;;;;;0.77;0.55;;;;;;;19.35;43.17;101136.84;4987997;28;20050;-67
2023/06/25 07:49:58;;;;;;;1.48;0.70;;;;;;;19.33;43.16;101147.31;4989592;28;20093;-67
2023/06/25 07:52:28;;;;;;;0.98;0.65;;;;;;;19.30;42.62;101139.47;4991845;28;20574;-68
2023/06/25 07:54:56;;;;;;;0.65;0.60;;;;;;;19.21;42.63;101142.94;4988184;28;20059;-67
2023/06/25 07:57:25;;;;;;;1.30;0.80;;;;;;;19.13;43.33;101149.97;4990970;28;20046;-66
2023/06/25 07:59:55;;;;;;;0.90;0.57;;;;;;;19.04;43.47;101150.81;4988753;28;20054;-67
2023/06/25 08:02:23;;;;;;;1.13;0.70;;;;;;;18.97;43.23;101149.06;4989127;28;20054;-68
2023/06/25 08:04:52;;;;;;;2.60;1.02;;;;;;;18.91;43.96;101149.06;4988649;28;20050;-68
2023/06/25 08:07:21;;;;;;;1.90;0.77;;;;;;;18.84;44.85;101147.28;4989213;28;20070;-68
2023/06/25 08:09:51;;;;;;;3.13;1.02;;;;;;;18.82;44.61;101154.28;4990689;28;20599;-68
2023/06/25 08:12:19;;;;;;;1.73;0.90;;;;;;;18.80;44.89;101156.03;4985974;28;20647;-68
2023/06/25 08:14:48;;;;;;;2.22;1.08;;;;;;;18.75;45.13;101157.72;4988909;28;20047;-68
2023/06/25 08:17:17;;;;;;;0.80;0.60;;;;;;;18.68;45.83;101153.34;4985291;28;20428;-67
2023/06/25 08:19:45;;;;;;;2.55;0.98;;;;;;;18.55;45.15;101148.06;4991238;28;20065;-68
2023/06/25 08:22:14;;;;;;;2.58;0.80;;;;;;;18.45;47.00;101143.66;4989112;28;20056;-67
2023/06/25 08:24:43;;;;;;;4.63;0.88;;;;;;;18.36;47.37;101152.38;4984731;28;20590;-67
2023/06/25 08:27:13;;;;;;;2.42;0.90;;;;;;;18.34;46.87;101148.00;4989426;28;20523;-67
2023/06/25 08:29:42;;;;;;;1.25;0.60;;;;;;;18.32;47.10;101139.25;4991105;28;20527;-68
2023/06/25 08:32:10;;;;;;;1.35;0.80;;;;;;;18.26;47.28;101141.88;4987475;28;20670;-68
2023/06/25 08:34:39;;;;;;;1.23;0.98;;;;;;;18.20;47.53;101138.34;4991895;28;20077;-67
2023/06/25 08:37:10;;;;;;;1.13;0.60;;;;;;;18.18;47.57;101144.44;4988745;28;20057;-68
2023/06/25 08:39:39;;;;;;;1.90;0.88;;;;;;;18.13;47.29;101140.94;4988407;28;20065;-68
2023/06/25 08:42:08;;;;;;;1.45;0.80;;;;;;;18.09;46.77;101144.41;4988227;28;20046;-67
2023/06/25 08:44:45;;;;;;;1.92;0.45;;;;;;;18.06;47.48;101145.25;4989041;28;20062;-67
2023/06/25 08:47:20;;;;;;;1.73;0.80;;;;;;;17.99;47.49;101146.97;4989401;28;20148;-68
2023/06/25 08:49:51;;;;;;;2.05;1.08;;;;;;;17.93;48.48;101146.06;4989984;28;20065;-67
2023/06/25 08:52:22;;;;;;;1.77;0.80;;;;;;;17.88;48.87;101155.63;4983917;28;20137;-68
2023/06/25 08:54:51;;;;;;;1.10;0.70;;;;;;;17.82;49.09;101147.75;4987325;28;20050;-69
2023/06/25 08:57:20;;;;;;;2.00;0.88;;;;;;;17.77;48.62;101153.81;4981780;28;20574;-67
2023/06/25 08:59:51;;;;;;;1.10;0.70;;;;;;;17.72;48.45;101144.16;4990608;28;20046;-67
2023/06/25 09:02:19;;;;;;;2.90;1.13;;;;;;;17.66;48.55;101145.00;4985661;28;20046;-68
2023/06/25 09:04:48;;;;;;;1.73;0.98;;;;;;;17.61;48.95;101144.09;4982459;28;20051;-68
2023/06/25 09:07:19;;;;;;;1.85;0.90;;;;;;;17.55;49.35;101141.44;4991639;28;20061;-67
2023/06/25 09:09:54;;;;;;;1.42;0.90;;;;;;;17.48;51.00;101147.50;4987775;28;20050;-68
2023/06/25 09:12:25;;;;;;;3.92;0.98;;;;;;;17.41;50.93;101143.97;4987838;28;20138;-69
2023/06/25 09:14:58;;;;;;;1.60;0.90;;;;;;;17.39;51.34;101140.47;4990438;28;20115;-68
2023/06/25 09:17:26;;;;;;;1.42;0.70;;;;;;;17.36;51.07;101146.53;4990472;28;20480;-67
2023/06/25 09:19:55;;;;;;;2.25;0.80;;;;;;;17.29;51.08;101147.31;4987160;28;20050;-68
2023/06/25 09:22:24;;;;;;;2.38;0.82;;;;;;;17.20;50.68;101149.88;4988757;28;20617;-68
2023/06/25 09:24:52;;;;;;;1.15;0.85;;;;;;;17.14;51.89;101157.69;4989509;28;20042;-68
2023/06/25 09:27:22;;;;;;;2.47;0.98;;;;;;;17.02;54.59;101152.31;4983901;28;20115;-67
2023/06/25 09:29:51;;;;;;;0.65;0.50;;;;;;;16.96;56.00;101156.63;4989034;28;20073;-67
2023/06/25 09:32:21;;;;;;;3.42;0.60;;;;;;;16.91;53.75;101162.69;4983108;28;20043;-68
2023/06/25 09:34:50;;;;;;;0.98;0.80;;;;;;;16.86;53.90;101167.88;4988555;28;20047;-68
2023/06/25 09:37:20;;;;;;;1.17;0.68;;;;;;;16.81;54.20;101166.06;4990714;28;20608;-68
2023/06/25 09:39:49;;;;;;;0.70;0.70;;;;;;;16.75;53.97;101167.72;4988421;28;20081;-68
2023/06/25 09:42:20;;;;;;;0.57;0.50;;;;;;;16.75;53.67;101166.84;4987995;28;20051;-67
2023/06/25 09:44:52;;;;;;;0.43;0.43;;;;;;;16.72;53.68;101158.97;4990191;28;20468;-68
2023/06/25 09:47:30;;;;;;;2.05;0.80;;;;;;;16.72;53.96;101172.03;4986199;28;20729;-68
2023/06/25 09:49:59;;;;;;;0.77;0.50;;;;;;;16.69;54.58;101174.63;4986004;28;20050;-69
2023/06/25 09:52:28;;;;;;;0.77;0.50;;;;;;;16.60;54.68;101171.91;4988882;28;20076;-67
2023/06/25 09:54:57;;;;;;;1.08;0.60;;;;;;;16.57;54.59;101179.72;4984588;28;20057;-67
2023/06/25 09:57:31;;;;;;;0.77;0.77;;;;;;;16.54;54.34;101183.16;4985469;28;20085;-68
2023/06/25 10:00:00;;;;;;;1.52;0.57;;;;;;;16.52;54.04;101180.53;4983249;28;20060;-67
2023/06/25 10:02:31;;;;;;;1.67;0.70;;;;;;;16.48;54.90;101178.72;4984178;28;20050;-67
2023/06/25 10:04:59;;;;;;;1.08;0.50;;;;;;;16.46;55.32;101175.22;4991130;28;20050;-67
2023/06/25 10:07:30;;;;;;;1.17;0.70;;;;;;;16.44;55.55;101178.69;4990888;28;20059;-68
2023/06/25 10:09:58;;;;;;;1.23;0.68;;;;;;;16.40;55.33;101190.84;4989848;28;20081;-66
2023/06/25 10:12:27;;;;;;;0.88;0.65;;;;;;;16.39;55.45;101182.97;4986726;28;20050;-67
2023/06/25 10:14:56;;;;;;;5.20;0.55;;;;;;;16.34;56.05;101177.69;4988822;28;20046;-68
2023/06/25 10:17:25;;;;;;;0.63;0.50;;;;;;;16.29;55.65;101177.63;4985852;28;20054;-68
2023/06/25 10:19:59;;;;;;;0.70;0.50;;;;;;;16.24;56.06;101178.41;4985833;28;20145;-67
2023/06/25 10:22:29;;;;;;;1.48;0.60;;;;;;;16.21;55.79;101181.00;4987392;28;20061;-67
2023/06/25 10:24:57;;;;;;;0.77;0.50;;;;;;;16.18;56.28;101186.19;4992249;28;20050;-68
2023/06/25 10:27:32;;;;;;;0.63;0.55;;;;;;;16.13;56.32;101181.78;4990486;28;20051;-66
2023/06/25 10:30:11;;;;;;;1.70;0.90;;;;;;;16.07;56.73;101192.13;4989813;28;20046;-66
2023/06/25 10:32:42;;;;;;;4.60;0.82;;;;;;;16.05;57.20;101192.97;4992215;28;20042;-67
2023/06/25 10:35:19;;;;;;;1.33;0.82;;;;;;;16.01;56.51;101185.94;4988601;28;20559;-67
2023/06/25 10:37:54;;;;;;;3.13;0.95;;;;;;;16.00;57.26;101185.06;4990452;28;20050;-67
2023/06/25 10:40:22;;;;;;;6.05;0.82;;;;;;;15.98;56.17;101181.56;4988771;28;20064;-68
2023/06/25 10:42:51;;;;;;;3.40;0.98;;;;;;;15.96;56.10;101180.66;4989641;28;20054;-67
2023/06/25 10:45:20;;;;;;;1.52;0.77;;;;;;;15.93;57.45;101184.97;4990200;28;20058;-67
2023/06/25 10:47:48;;;;;;;1.58;0.82;;;;;;;15.84;59.53;101177.88;4993220;28;20089;-67
2023/06/25 10:50:20;;;;;;;1.15;0.88;;;;;;;15.74;62.05;101183.84;4988606;28;20042;-68
2023/06/25 10:52:49;;;;;;;2.38;0.73;;;;;;;15.68;61.38;101189.78;4990097;28;20123;-67
2023/06/25 10:55:17;;;;;;;1.88;0.80;;;;;;;15.64;60.68;101188.84;4991260;28;20042;-67
2023/06/25 10:57:46;;;;;;;1.40;0.80;;;;;;;15.61;59.99;101191.41;4988052;28;20054;-68
2023/06/25 11:00:16;;;;;;;0.90;0.70;;;;;;;15.57;59.26;101189.59;4989153;28;20051;-67
2023/06/25 11:02:44;;;;;;;1.45;0.75;;;;;;;15.56;58.81;101193.06;4991230;28;20050;-68
2023/06/25 11:05:13;;;;;;;2.10;0.63;;;;;;;15.55;58.38;101190.44;4990206;28;20042;-67
2023/06/25 11:07:45;;;;;;;2.47;0.80;;;;;;;15.54;58.56;101199.13;4991711;28;20066;-67
2023/06/25 11:10:14;;;;;;;2.15;1.05;;;;;;;15.50;58.38;101198.19;4987077;28;20056;-66
2023/06/25 11:12:43;;;;;;;1.25;0.80;;;;;;;15.47;59.24;101190.31;4989818;28;20046;-67
2023/06/25 11:15:11;;;;;;;3.30;0.70;;;;;;;15.42;59.60;101195.47;4990104;28;20042;-67
2023/06/25 11:17:40;;;;;;;1.17;0.85;;;;;;;15.33;59.34;101178.78;4990435;28;20492;-67
2023/06/25 11:20:12;;;;;;;1.52;0.80;;;;;;;15.35;59.50;101187.53;4988150;28;20520;-67
2023/06/25 11:22:45;;;;;;;2.03;1.13;;;;;;;15.35;59.70;101190.13;4989733;28;20063;-68
2023/06/25 11:25:14;;;;;;;4.30;0.80;;;;;;;15.32;59.10;101193.53;4988963;28;20467;-67
2023/06/25 11:27:43;;;;;;;1.27;0.88;;;;;;;15.29;58.99;101194.38;4993179;28;20109;-67
2023/06/25 11:30:13;;;;;;;1.70;0.80;;;;;;;15.25;59.28;101187.34;4990850;28;20048;-67
2023/06/25 11:32:41;;;;;;;0.80;0.60;;;;;;;15.21;59.37;101189.88;4987755;28;20078;-67
2023/06/25 11:35:14;;;;;;;4.35;0.80;;;;;;;15.18;59.77;101189.81;4990260;28;20053;-68